sensor_id;sensor_type;location;lat;lon;timestamp;P1;durP1;ratioP1;P2;durP2;ratioP2
55210;SDS011;41082;52.822;6.666;2023-06-04T00:00:42;4.20;;;1.40;;
55210;SDS011;41082;52.822;6.666;2023-06-04T00:03:07;4.70;;;1.50;;
55210;SDS011;41082;52.822;6.666;2023-06-04T00:05:33;6.45;;;1.27;;
55210;SDS011;41082;52.822;6.666;2023-06-04T00:07:59;4.78;;;1.30;;
55210;SDS011;41082;52.822;6.666;2023-06-04T00:10:24;6.30;;;2.17;;
55210;SDS011;41082;52.822;6.666;2023-06-04T00:12:50;7.80;;;1.95;;
55210;SDS011;41082;52.822;6.666;2023-06-04T00:15:15;5.68;;;1.55;;
55210;SDS011;41082;52.822;6.666;2023-06-04T00:17:42;5.70;;;1.50;;
55210;SDS011;41082;52.822;6.666;2023-06-04T00:20:08;4.13;;;1.35;;
55210;SDS011;41082;52.822;6.666;2023-06-04T00:22:34;8.05;;;2.10;;
55210;SDS011;41082;52.822;6.666;2023-06-04T00:25:00;6.63;;;1.63;;
55210;SDS011;41082;52.822;6.666;2023-06-04T00:27:25;6.38;;;2.03;;
55210;SDS011;41082;52.822;6.666;2023-06-04T00:29:51;4.70;;;1.70;;
55210;SDS011;41082;52.822;6.666;2023-06-04T00:32:17;5.28;;;1.85;;
55210;SDS011;41082;52.822;6.666;2023-06-04T00:34:42;5.45;;;1.85;;
55210;SDS011;41082;52.822;6.666;2023-06-04T00:37:08;6.57;;;2.20;;
55210;SDS011;41082;52.822;6.666;2023-06-04T00:39:34;6.70;;;2.03;;
55210;SDS011;41082;52.822;6.666;2023-06-04T00:41:59;5.82;;;2.13;;
55210;SDS011;41082;52.822;6.666;2023-06-04T00:44:25;9.38;;;2.10;;
55210;SDS011;41082;52.822;6.666;2023-06-04T00:46:52;7.07;;;2.25;;
55210;SDS011;41082;52.822;6.666;2023-06-04T00:49:18;6.50;;;2.05;;
55210;SDS011;41082;52.822;6.666;2023-06-04T00:51:45;6.13;;;2.33;;
55210;SDS011;41082;52.822;6.666;2023-06-04T00:54:11;5.72;;;2.15;;
55210;SDS011;41082;52.822;6.666;2023-06-04T00:56:37;9.07;;;2.42;;
55210;SDS011;41082;52.822;6.666;2023-06-04T00:59:06;5.47;;;2.47;;
55210;SDS011;41082;52.822;6.666;2023-06-04T01:05:02;7.00;;;2.20;;
55210;SDS011;41082;52.822;6.666;2023-06-04T01:07:05;5.43;;;2.15;;
55210;SDS011;41082;52.822;6.666;2023-06-04T01:09:33;8.25;;;2.40;;
55210;SDS011;41082;52.822;6.666;2023-06-04T01:12:03;4.82;;;1.75;;
55210;SDS011;41082;52.822;6.666;2023-06-04T01:14:29;9.45;;;2.20;;
55210;SDS011;41082;52.822;6.666;2023-06-04T01:17:02;8.70;;;2.30;;
55210;SDS011;41082;52.822;6.666;2023-06-04T01:25:33;5.25;;;1.80;;
55210;SDS011;41082;52.822;6.666;2023-06-04T01:28:09;6.50;;;2.22;;
55210;SDS011;41082;52.822;6.666;2023-06-04T01:30:37;8.82;;;2.42;;
55210;SDS011;41082;52.822;6.666;2023-06-04T01:33:08;7.13;;;1.92;;
55210;SDS011;41082;52.822;6.666;2023-06-04T01:35:36;7.20;;;2.30;;
55210;SDS011;41082;52.822;6.666;2023-06-04T01:38:02;11.00;;;2.63;;
55210;SDS011;41082;52.822;6.666;2023-06-04T01:40:28;5.88;;;2.53;;
55210;SDS011;41082;52.822;6.666;2023-06-04T01:42:54;9.82;;;2.60;;
55210;SDS011;41082;52.822;6.666;2023-06-04T01:45:21;9.27;;;2.65;;
55210;SDS011;41082;52.822;6.666;2023-06-04T01:47:47;8.60;;;2.55;;
55210;SDS011;41082;52.822;6.666;2023-06-04T01:50:13;8.57;;;2.67;;
55210;SDS011;41082;52.822;6.666;2023-06-04T01:52:39;11.75;;;2.63;;
55210;SDS011;41082;52.822;6.666;2023-06-04T01:55:05;8.32;;;2.40;;
55210;SDS011;41082;52.822;6.666;2023-06-04T01:57:33;8.40;;;3.05;;
55210;SDS011;41082;52.822;6.666;2023-06-04T02:00:00;8.52;;;2.33;;
55210;SDS011;41082;52.822;6.666;2023-06-04T02:02:26;7.13;;;2.30;;
55210;SDS011;41082;52.822;6.666;2023-06-04T02:04:52;8.82;;;2.60;;
55210;SDS011;41082;52.822;6.666;2023-06-04T02:07:18;7.90;;;2.40;;
55210;SDS011;41082;52.822;6.666;2023-06-04T02:09:48;9.20;;;2.60;;
55210;SDS011;41082;52.822;6.666;2023-06-04T02:12:14;6.60;;;1.88;;
55210;SDS011;41082;52.822;6.666;2023-06-04T02:14:40;6.40;;;2.10;;
55210;SDS011;41082;52.822;6.666;2023-06-04T02:17:07;10.27;;;2.40;;
55210;SDS011;41082;52.822;6.666;2023-06-04T02:19:38;7.93;;;2.00;;
55210;SDS011;41082;52.822;6.666;2023-06-04T02:22:14;6.88;;;2.28;;
55210;SDS011;41082;52.822;6.666;2023-06-04T02:24:44;9.23;;;2.30;;
55210;SDS011;41082;52.822;6.666;2023-06-04T02:27:10;7.95;;;2.60;;
55210;SDS011;41082;52.822;6.666;2023-06-04T02:29:38;8.27;;;2.20;;
55210;SDS011;41082;52.822;6.666;2023-06-04T02:32:04;5.95;;;2.22;;
55210;SDS011;41082;52.822;6.666;2023-06-04T02:34:30;7.03;;;2.17;;
55210;SDS011;41082;52.822;6.666;2023-06-04T02:36:56;19.00;;;3.72;;
55210;SDS011;41082;52.822;6.666;2023-06-04T02:39:22;6.72;;;2.10;;
55210;SDS011;41082;52.822;6.666;2023-06-04T02:41:47;4.53;;;1.58;;
55210;SDS011;41082;52.822;6.666;2023-06-04T02:44:13;7.15;;;2.72;;
55210;SDS011;41082;52.822;6.666;2023-06-04T02:46:38;8.10;;;1.98;;
55210;SDS011;41082;52.822;6.666;2023-06-04T02:49:04;8.00;;;2.05;;
55210;SDS011;41082;52.822;6.666;2023-06-04T02:51:30;7.28;;;1.95;;
55210;SDS011;41082;52.822;6.666;2023-06-04T02:53:57;9.00;;;2.13;;
55210;SDS011;41082;52.822;6.666;2023-06-04T02:56:23;7.20;;;1.83;;
55210;SDS011;41082;52.822;6.666;2023-06-04T02:58:54;5.40;;;2.22;;
55210;SDS011;41082;52.822;6.666;2023-06-04T03:01:24;4.80;;;1.63;;
55210;SDS011;41082;52.822;6.666;2023-06-04T03:03:51;9.55;;;2.33;;
55210;SDS011;41082;52.822;6.666;2023-06-04T03:06:18;7.50;;;2.22;;
55210;SDS011;41082;52.822;6.666;2023-06-04T03:08:48;4.85;;;1.60;;
55210;SDS011;41082;52.822;6.666;2023-06-04T03:11:15;8.05;;;2.10;;
55210;SDS011;41082;52.822;6.666;2023-06-04T03:13:41;10.38;;;2.65;;
55210;SDS011;41082;52.822;6.666;2023-06-04T03:16:06;11.55;;;3.55;;
55210;SDS011;41082;52.822;6.666;2023-06-04T03:18:35;6.65;;;2.50;;
55210;SDS011;41082;52.822;6.666;2023-06-04T03:21:02;6.30;;;2.45;;
55210;SDS011;41082;52.822;6.666;2023-06-04T03:23:28;6.80;;;2.47;;
55210;SDS011;41082;52.822;6.666;2023-06-04T03:25:54;9.13;;;2.60;;
55210;SDS011;41082;52.822;6.666;2023-06-04T03:28:20;9.35;;;2.00;;
55210;SDS011;41082;52.822;6.666;2023-06-04T03:30:45;9.10;;;2.20;;
55210;SDS011;41082;52.822;6.666;2023-06-04T03:33:11;5.43;;;1.80;;
55210;SDS011;41082;52.822;6.666;2023-06-04T03:35:37;5.63;;;2.08;;
55210;SDS011;41082;52.822;6.666;2023-06-04T03:38:02;6.13;;;1.58;;
55210;SDS011;41082;52.822;6.666;2023-06-04T03:40:28;6.28;;;1.75;;
55210;SDS011;41082;52.822;6.666;2023-06-04T03:42:53;8.65;;;2.15;;
55210;SDS011;41082;52.822;6.666;2023-06-04T03:45:19;6.90;;;2.35;;
55210;SDS011;41082;52.822;6.666;2023-06-04T03:47:45;7.30;;;1.95;;
55210;SDS011;41082;52.822;6.666;2023-06-04T03:50:11;7.50;;;2.05;;
55210;SDS011;41082;52.822;6.666;2023-06-04T03:52:36;3.95;;;2.00;;
55210;SDS011;41082;52.822;6.666;2023-06-04T03:55:02;9.68;;;2.47;;
55210;SDS011;41082;52.822;6.666;2023-06-04T03:57:28;8.82;;;2.42;;
55210;SDS011;41082;52.822;6.666;2023-06-04T03:59:54;5.38;;;2.03;;
55210;SDS011;41082;52.822;6.666;2023-06-04T04:02:20;7.25;;;2.22;;
55210;SDS011;41082;52.822;6.666;2023-06-04T04:04:46;4.68;;;2.00;;
55210;SDS011;41082;52.822;6.666;2023-06-04T04:07:11;6.40;;;2.30;;
55210;SDS011;41082;52.822;6.666;2023-06-04T04:09:37;8.30;;;2.40;;
55210;SDS011;41082;52.822;6.666;2023-06-04T04:12:03;10.85;;;2.45;;
55210;SDS011;41082;52.822;6.666;2023-06-04T04:14:29;6.53;;;3.30;;
55210;SDS011;41082;52.822;6.666;2023-06-04T04:16:54;6.65;;;2.85;;
55210;SDS011;41082;52.822;6.666;2023-06-04T04:19:20;11.18;;;3.53;;
55210;SDS011;41082;52.822;6.666;2023-06-04T04:21:46;11.85;;;4.18;;
55210;SDS011;41082;52.822;6.666;2023-06-04T04:24:24;11.90;;;4.38;;
55210;SDS011;41082;52.822;6.666;2023-06-04T04:26:51;12.63;;;4.20;;
55210;SDS011;41082;52.822;6.666;2023-06-04T04:29:18;14.40;;;4.32;;
55210;SDS011;41082;52.822;6.666;2023-06-04T04:31:50;9.60;;;3.80;;
55210;SDS011;41082;52.822;6.666;2023-06-04T04:34:16;16.30;;;4.13;;
55210;SDS011;41082;52.822;6.666;2023-06-04T04:36:42;8.80;;;3.78;;
55210;SDS011;41082;52.822;6.666;2023-06-04T04:39:09;14.52;;;4.20;;
55210;SDS011;41082;52.822;6.666;2023-06-04T04:41:36;11.60;;;4.32;;
55210;SDS011;41082;52.822;6.666;2023-06-04T04:44:02;9.90;;;4.32;;
55210;SDS011;41082;52.822;6.666;2023-06-04T04:46:30;12.35;;;4.60;;
55210;SDS011;41082;52.822;6.666;2023-06-04T04:48:56;12.18;;;4.40;;
55210;SDS011;41082;52.822;6.666;2023-06-04T04:51:22;18.13;;;4.95;;
55210;SDS011;41082;52.822;6.666;2023-06-04T04:53:47;13.30;;;5.00;;
55210;SDS011;41082;52.822;6.666;2023-06-04T04:56:13;18.45;;;5.60;;
55210;SDS011;41082;52.822;6.666;2023-06-04T04:58:39;12.07;;;4.75;;
55210;SDS011;41082;52.822;6.666;2023-06-04T05:01:05;8.95;;;4.47;;
55210;SDS011;41082;52.822;6.666;2023-06-04T05:03:30;8.18;;;4.50;;
55210;SDS011;41082;52.822;6.666;2023-06-04T05:05:56;13.90;;;5.20;;
55210;SDS011;41082;52.822;6.666;2023-06-04T05:08:21;10.18;;;4.70;;
55210;SDS011;41082;52.822;6.666;2023-06-04T05:10:47;8.80;;;5.20;;
55210;SDS011;41082;52.822;6.666;2023-06-04T05:13:13;13.77;;;5.50;;
55210;SDS011;41082;52.822;6.666;2023-06-04T05:15:40;8.75;;;4.60;;
55210;SDS011;41082;52.822;6.666;2023-06-04T05:18:07;11.00;;;4.90;;
55210;SDS011;41082;52.822;6.666;2023-06-04T05:20:33;11.48;;;5.47;;
55210;SDS011;41082;52.822;6.666;2023-06-04T05:23:00;12.68;;;5.65;;
55210;SDS011;41082;52.822;6.666;2023-06-04T05:25:27;10.05;;;5.30;;
55210;SDS011;41082;52.822;6.666;2023-06-04T05:27:53;10.45;;;5.43;;
55210;SDS011;41082;52.822;6.666;2023-06-04T05:30:20;13.88;;;5.75;;
55210;SDS011;41082;52.822;6.666;2023-06-04T05:32:46;9.63;;;5.50;;
55210;SDS011;41082;52.822;6.666;2023-06-04T05:35:12;10.77;;;5.72;;
55210;SDS011;41082;52.822;6.666;2023-06-04T05:37:38;10.82;;;5.78;;
55210;SDS011;41082;52.822;6.666;2023-06-04T05:40:05;10.50;;;5.32;;
55210;SDS011;41082;52.822;6.666;2023-06-04T05:42:32;14.05;;;5.53;;
55210;SDS011;41082;52.822;6.666;2023-06-04T05:44:57;13.15;;;5.32;;
55210;SDS011;41082;52.822;6.666;2023-06-04T05:47:23;9.25;;;5.35;;
55210;SDS011;41082;52.822;6.666;2023-06-04T05:49:49;12.18;;;6.10;;
55210;SDS011;41082;52.822;6.666;2023-06-04T05:52:15;9.27;;;5.35;;
55210;SDS011;41082;52.822;6.666;2023-06-04T05:54:40;12.55;;;6.47;;
55210;SDS011;41082;52.822;6.666;2023-06-04T05:57:06;14.70;;;6.32;;
55210;SDS011;41082;52.822;6.666;2023-06-04T05:59:32;19.08;;;6.50;;
55210;SDS011;41082;52.822;6.666;2023-06-04T06:01:57;10.68;;;6.25;;
55210;SDS011;41082;52.822;6.666;2023-06-04T06:04:23;10.05;;;5.18;;
55210;SDS011;41082;52.822;6.666;2023-06-04T06:06:49;11.73;;;5.68;;
55210;SDS011;41082;52.822;6.666;2023-06-04T06:09:15;8.48;;;5.10;;
55210;SDS011;41082;52.822;6.666;2023-06-04T06:11:41;8.65;;;5.00;;
55210;SDS011;41082;52.822;6.666;2023-06-04T06:14:07;9.50;;;4.97;;
55210;SDS011;41082;52.822;6.666;2023-06-04T06:16:33;11.48;;;4.60;;
55210;SDS011;41082;52.822;6.666;2023-06-04T06:18:59;8.10;;;4.75;;
55210;SDS011;41082;52.822;6.666;2023-06-04T06:21:26;10.52;;;4.38;;
55210;SDS011;41082;52.822;6.666;2023-06-04T06:23:52;7.95;;;3.17;;
55210;SDS011;41082;52.822;6.666;2023-06-04T06:26:18;6.75;;;3.30;;
55210;SDS011;41082;52.822;6.666;2023-06-04T06:28:44;5.80;;;2.97;;
55210;SDS011;41082;52.822;6.666;2023-06-04T06:31:10;9.82;;;3.40;;
55210;SDS011;41082;52.822;6.666;2023-06-04T06:33:35;8.10;;;2.97;;
55210;SDS011;41082;52.822;6.666;2023-06-04T06:36:06;8.13;;;2.88;;
55210;SDS011;41082;52.822;6.666;2023-06-04T06:38:32;8.15;;;3.60;;
55210;SDS011;41082;52.822;6.666;2023-06-04T06:40:58;8.82;;;3.80;;
55210;SDS011;41082;52.822;6.666;2023-06-04T06:43:24;7.90;;;3.70;;
55210;SDS011;41082;52.822;6.666;2023-06-04T06:45:49;8.35;;;4.18;;
55210;SDS011;41082;52.822;6.666;2023-06-04T06:48:15;7.75;;;3.28;;
55210;SDS011;41082;52.822;6.666;2023-06-04T06:50:41;6.60;;;3.80;;
55210;SDS011;41082;52.822;6.666;2023-06-04T06:53:07;8.02;;;3.20;;
55210;SDS011;41082;52.822;6.666;2023-06-04T06:55:32;6.43;;;3.38;;
55210;SDS011;41082;52.822;6.666;2023-06-04T06:57:58;6.80;;;3.40;;
55210;SDS011;41082;52.822;6.666;2023-06-04T07:00:25;11.10;;;2.83;;
55210;SDS011;41082;52.822;6.666;2023-06-04T07:02:52;7.75;;;2.88;;
55210;SDS011;41082;52.822;6.666;2023-06-04T07:05:18;6.43;;;2.40;;
55210;SDS011;41082;52.822;6.666;2023-06-04T07:07:43;5.32;;;2.70;;
55210;SDS011;41082;52.822;6.666;2023-06-04T07:10:09;6.18;;;2.35;;
55210;SDS011;41082;52.822;6.666;2023-06-04T07:12:35;4.35;;;2.00;;
55210;SDS011;41082;52.822;6.666;2023-06-04T07:15:01;7.90;;;2.70;;
55210;SDS011;41082;52.822;6.666;2023-06-04T07:17:27;5.20;;;2.22;;
55210;SDS011;41082;52.822;6.666;2023-06-04T07:19:52;10.05;;;2.10;;
55210;SDS011;41082;52.822;6.666;2023-06-04T07:22:18;11.40;;;2.80;;
55210;SDS011;41082;52.822;6.666;2023-06-04T07:24:43;7.07;;;2.42;;
55210;SDS011;41082;52.822;6.666;2023-06-04T07:27:10;8.23;;;1.98;;
55210;SDS011;41082;52.822;6.666;2023-06-04T07:29:37;6.82;;;2.30;;
55210;SDS011;41082;52.822;6.666;2023-06-04T07:32:03;11.57;;;2.80;;
55210;SDS011;41082;52.822;6.666;2023-06-04T07:34:28;9.25;;;2.78;;
55210;SDS011;41082;52.822;6.666;2023-06-04T07:36:54;11.23;;;2.00;;
55210;SDS011;41082;52.822;6.666;2023-06-04T07:39:20;5.22;;;1.90;;
55210;SDS011;41082;52.822;6.666;2023-06-04T07:41:46;9.23;;;2.35;;
55210;SDS011;41082;52.822;6.666;2023-06-04T07:44:12;8.00;;;2.22;;
55210;SDS011;41082;52.822;6.666;2023-06-04T07:46:37;5.82;;;1.67;;
55210;SDS011;41082;52.822;6.666;2023-06-04T07:49:03;6.75;;;2.13;;
55210;SDS011;41082;52.822;6.666;2023-06-04T07:51:29;7.70;;;1.70;;
55210;SDS011;41082;52.822;6.666;2023-06-04T07:53:54;6.63;;;1.40;;
55210;SDS011;41082;52.822;6.666;2023-06-04T07:56:21;6.03;;;1.30;;
55210;SDS011;41082;52.822;6.666;2023-06-04T07:58:46;4.53;;;1.30;;
55210;SDS011;41082;52.822;6.666;2023-06-04T08:01:12;6.82;;;1.92;;
55210;SDS011;41082;52.822;6.666;2023-06-04T08:03:38;6.07;;;1.50;;
55210;SDS011;41082;52.822;6.666;2023-06-04T08:06:05;8.25;;;1.10;;
55210;SDS011;41082;52.822;6.666;2023-06-04T08:08:31;4.53;;;0.80;;
55210;SDS011;41082;52.822;6.666;2023-06-04T08:10:58;5.80;;;0.90;;
55210;SDS011;41082;52.822;6.666;2023-06-04T08:13:24;4.88;;;0.95;;
55210;SDS011;41082;52.822;6.666;2023-06-04T08:15:50;6.25;;;0.98;;
55210;SDS011;41082;52.822;6.666;2023-06-04T08:18:15;2.38;;;0.38;;
55210;SDS011;41082;52.822;6.666;2023-06-04T08:20:41;4.20;;;0.88;;
55210;SDS011;41082;52.822;6.666;2023-06-04T08:23:07;2.80;;;0.60;;
55210;SDS011;41082;52.822;6.666;2023-06-04T08:25:32;3.00;;;0.50;;
55210;SDS011;41082;52.822;6.666;2023-06-04T08:27:58;4.05;;;0.65;;
55210;SDS011;41082;52.822;6.666;2023-06-04T08:30:24;5.93;;;0.50;;
55210;SDS011;41082;52.822;6.666;2023-06-04T08:32:52;6.57;;;0.90;;
55210;SDS011;41082;52.822;6.666;2023-06-04T08:35:18;4.00;;;0.60;;
55210;SDS011;41082;52.822;6.666;2023-06-04T08:37:44;2.10;;;0.40;;
55210;SDS011;41082;52.822;6.666;2023-06-04T08:40:09;2.75;;;0.60;;
55210;SDS011;41082;52.822;6.666;2023-06-04T08:42:43;2.17;;;0.65;;
55210;SDS011;41082;52.822;6.666;2023-06-04T08:45:12;3.75;;;0.88;;
55210;SDS011;41082;52.822;6.666;2023-06-04T08:47:48;4.78;;;0.60;;
55210;SDS011;41082;52.822;6.666;2023-06-04T08:50:16;4.57;;;0.73;;
55210;SDS011;41082;52.822;6.666;2023-06-04T08:52:43;5.32;;;1.08;;
55210;SDS011;41082;52.822;6.666;2023-06-04T08:55:10;4.88;;;1.15;;
55210;SDS011;41082;52.822;6.666;2023-06-04T08:57:38;6.10;;;0.77;;
55210;SDS011;41082;52.822;6.666;2023-06-04T09:00:06;4.35;;;0.88;;
55210;SDS011;41082;52.822;6.666;2023-06-04T09:02:34;2.72;;;0.80;;
55210;SDS011;41082;52.822;6.666;2023-06-04T09:05:02;4.68;;;0.63;;
55210;SDS011;41082;52.822;6.666;2023-06-04T09:07:29;4.30;;;0.70;;
55210;SDS011;41082;52.822;6.666;2023-06-04T09:09:56;3.10;;;0.65;;
55210;SDS011;41082;52.822;6.666;2023-06-04T09:12:24;4.05;;;0.85;;
55210;SDS011;41082;52.822;6.666;2023-06-04T09:14:50;5.70;;;0.73;;
55210;SDS011;41082;52.822;6.666;2023-06-04T09:17:23;4.70;;;0.50;;
55210;SDS011;41082;52.822;6.666;2023-06-04T09:19:50;6.38;;;0.70;;
55210;SDS011;41082;52.822;6.666;2023-06-04T09:22:16;8.02;;;1.10;;
55210;SDS011;41082;52.822;6.666;2023-06-04T09:24:45;5.00;;;0.70;;
55210;SDS011;41082;52.822;6.666;2023-06-04T09:27:13;2.95;;;0.47;;
55210;SDS011;41082;52.822;6.666;2023-06-04T09:29:40;4.13;;;0.68;;
55210;SDS011;41082;52.822;6.666;2023-06-04T09:32:14;2.58;;;0.50;;
55210;SDS011;41082;52.822;6.666;2023-06-04T09:34:39;2.90;;;0.50;;
55210;SDS011;41082;52.822;6.666;2023-06-04T09:37:13;1.67;;;0.30;;
55210;SDS011;41082;52.822;6.666;2023-06-04T09:42:06;5.78;;;0.50;;
55210;SDS011;41082;52.822;6.666;2023-06-04T09:44:42;4.57;;;0.60;;
55210;SDS011;41082;52.822;6.666;2023-06-04T09:47:08;4.03;;;0.68;;
55210;SDS011;41082;52.822;6.666;2023-06-04T09:49:44;3.35;;;0.80;;
55210;SDS011;41082;52.822;6.666;2023-06-04T09:52:10;2.50;;;0.40;;
55210;SDS011;41082;52.822;6.666;2023-06-04T09:54:37;3.13;;;0.70;;
55210;SDS011;41082;52.822;6.666;2023-06-04T09:57:13;3.47;;;0.75;;
55210;SDS011;41082;52.822;6.666;2023-06-04T09:59:49;2.42;;;0.55;;
55210;SDS011;41082;52.822;6.666;2023-06-04T10:02:21;3.30;;;0.60;;
55210;SDS011;41082;52.822;6.666;2023-06-04T10:04:49;3.65;;;0.68;;
55210;SDS011;41082;52.822;6.666;2023-06-04T10:07:23;4.65;;;0.50;;
55210;SDS011;41082;52.822;6.666;2023-06-04T10:09:49;3.78;;;0.50;;
55210;SDS011;41082;52.822;6.666;2023-06-04T10:12:16;3.55;;;0.65;;
55210;SDS011;41082;52.822;6.666;2023-06-04T10:15:16;2.25;;;0.43;;
55210;SDS011;41082;52.822;6.666;2023-06-04T10:17:42;2.97;;;0.50;;
55210;SDS011;41082;52.822;6.666;2023-06-04T10:20:08;2.72;;;0.60;;
55210;SDS011;41082;52.822;6.666;2023-06-04T10:22:34;4.80;;;0.85;;
55210;SDS011;41082;52.822;6.666;2023-06-04T10:25:00;3.45;;;0.50;;
55210;SDS011;41082;52.822;6.666;2023-06-04T10:27:30;5.50;;;0.60;;
55210;SDS011;41082;52.822;6.666;2023-06-04T10:29:56;3.10;;;0.47;;
55210;SDS011;41082;52.822;6.666;2023-06-04T10:32:25;3.97;;;0.60;;
55210;SDS011;41082;52.822;6.666;2023-06-04T10:34:55;3.72;;;0.60;;
55210;SDS011;41082;52.822;6.666;2023-06-04T10:37:22;2.88;;;0.43;;
55210;SDS011;41082;52.822;6.666;2023-06-04T10:39:56;2.13;;;0.50;;
55210;SDS011;41082;52.822;6.666;2023-06-04T10:42:22;3.72;;;0.50;;
55210;SDS011;41082;52.822;6.666;2023-06-04T10:44:50;2.75;;;0.43;;
55210;SDS011;41082;52.822;6.666;2023-06-04T10:49:50;1.52;;;0.40;;
55210;SDS011;41082;52.822;6.666;2023-06-04T10:52:16;2.78;;;0.52;;
55210;SDS011;41082;52.822;6.666;2023-06-04T10:54:44;2.17;;;0.50;;
55210;SDS011;41082;52.822;6.666;2023-06-04T10:57:11;1.15;;;0.30;;
55210;SDS011;41082;52.822;6.666;2023-06-04T10:59:37;2.85;;;0.43;;
55210;SDS011;41082;52.822;6.666;2023-06-04T11:02:06;2.15;;;0.40;;
55210;SDS011;41082;52.822;6.666;2023-06-04T11:04:33;3.33;;;0.40;;
55210;SDS011;41082;52.822;6.666;2023-06-04T11:07:03;2.08;;;0.50;;
55210;SDS011;41082;52.822;6.666;2023-06-04T11:09:36;1.42;;;0.32;;
55210;SDS011;41082;52.822;6.666;2023-06-04T11:12:04;1.80;;;0.40;;
55210;SDS011;41082;52.822;6.666;2023-06-04T11:14:30;5.47;;;0.60;;
55210;SDS011;41082;52.822;6.666;2023-06-04T11:16:56;4.25;;;0.30;;
55210;SDS011;41082;52.822;6.666;2023-06-04T11:19:22;2.53;;;0.40;;
55210;SDS011;41082;52.822;6.666;2023-06-04T11:21:48;2.78;;;0.50;;
55210;SDS011;41082;52.822;6.666;2023-06-04T11:24:14;5.13;;;0.60;;
55210;SDS011;41082;52.822;6.666;2023-06-04T11:26:41;1.83;;;0.52;;
55210;SDS011;41082;52.822;6.666;2023-06-04T11:29:10;1.52;;;0.40;;
55210;SDS011;41082;52.822;6.666;2023-06-04T11:31:47;2.20;;;0.65;;
55210;SDS011;41082;52.822;6.666;2023-06-04T11:34:25;3.28;;;0.50;;
55210;SDS011;41082;52.822;6.666;2023-06-04T11:36:52;3.05;;;0.73;;
55210;SDS011;41082;52.822;6.666;2023-06-04T11:39:18;1.67;;;0.38;;
55210;SDS011;41082;52.822;6.666;2023-06-04T11:41:45;2.10;;;0.63;;
55210;SDS011;41082;52.822;6.666;2023-06-04T11:44:11;1.65;;;0.75;;
55210;SDS011;41082;52.822;6.666;2023-06-04T11:46:43;1.95;;;0.40;;
55210;SDS011;41082;52.822;6.666;2023-06-04T11:49:16;1.92;;;0.30;;
55210;SDS011;41082;52.822;6.666;2023-06-04T11:51:46;4.13;;;0.73;;
55210;SDS011;41082;52.822;6.666;2023-06-04T11:54:13;2.58;;;0.63;;
55210;SDS011;41082;52.822;6.666;2023-06-04T11:56:40;4.05;;;0.40;;
55210;SDS011;41082;52.822;6.666;2023-06-04T11:59:09;2.65;;;0.40;;
55210;SDS011;41082;52.822;6.666;2023-06-04T12:01:38;0.98;;;0.30;;
55210;SDS011;41082;52.822;6.666;2023-06-04T12:04:38;1.90;;;0.40;;
55210;SDS011;41082;52.822;6.666;2023-06-04T12:06:57;2.80;;;0.40;;
55210;SDS011;41082;52.822;6.666;2023-06-04T12:09:29;2.50;;;0.50;;
55210;SDS011;41082;52.822;6.666;2023-06-04T12:12:04;3.15;;;0.77;;
55210;SDS011;41082;52.822;6.666;2023-06-04T12:14:31;3.00;;;0.40;;
55210;SDS011;41082;52.822;6.666;2023-06-04T12:17:00;1.33;;;0.40;;
55210;SDS011;41082;52.822;6.666;2023-06-04T12:19:30;3.40;;;0.30;;
55210;SDS011;41082;52.822;6.666;2023-06-04T12:24:29;5.90;;;0.65;;
55210;SDS011;41082;52.822;6.666;2023-06-04T12:27:01;1.15;;;0.28;;
55210;SDS011;41082;52.822;6.666;2023-06-04T12:29:28;3.75;;;0.55;;
55210;SDS011;41082;52.822;6.666;2023-06-04T12:32:01;2.50;;;0.40;;
55210;SDS011;41082;52.822;6.666;2023-06-04T12:34:35;1.38;;;0.40;;
55210;SDS011;41082;52.822;6.666;2023-06-04T12:37:01;5.32;;;0.50;;
55210;SDS011;41082;52.822;6.666;2023-06-04T12:39:28;2.17;;;0.40;;
55210;SDS011;41082;52.822;6.666;2023-06-04T12:41:54;4.40;;;0.50;;
55210;SDS011;41082;52.822;6.666;2023-06-04T12:44:20;3.67;;;0.60;;
55210;SDS011;41082;52.822;6.666;2023-06-04T12:46:46;2.60;;;0.30;;
55210;SDS011;41082;52.822;6.666;2023-06-04T12:49:12;2.10;;;0.47;;
55210;SDS011;41082;52.822;6.666;2023-06-04T12:51:37;2.50;;;0.50;;
55210;SDS011;41082;52.822;6.666;2023-06-04T12:54:03;3.45;;;0.30;;
55210;SDS011;41082;52.822;6.666;2023-06-04T12:56:30;2.40;;;0.57;;
55210;SDS011;41082;52.822;6.666;2023-06-04T12:58:55;3.42;;;0.40;;
55210;SDS011;41082;52.822;6.666;2023-06-04T13:01:21;2.20;;;0.80;;
55210;SDS011;41082;52.822;6.666;2023-06-04T13:03:47;3.92;;;0.50;;
55210;SDS011;41082;52.822;6.666;2023-06-04T13:06:12;2.60;;;0.85;;
55210;SDS011;41082;52.822;6.666;2023-06-04T13:08:38;2.17;;;0.50;;
55210;SDS011;41082;52.822;6.666;2023-06-04T13:11:03;3.58;;;0.60;;
55210;SDS011;41082;52.822;6.666;2023-06-04T13:13:30;2.35;;;0.40;;
55210;SDS011;41082;52.822;6.666;2023-06-04T13:15:56;2.83;;;0.65;;
55210;SDS011;41082;52.822;6.666;2023-06-04T13:18:22;1.17;;;0.40;;
55210;SDS011;41082;52.822;6.666;2023-06-04T13:20:48;1.48;;;0.50;;
55210;SDS011;41082;52.822;6.666;2023-06-04T13:23:16;3.97;;;0.50;;
55210;SDS011;41082;52.822;6.666;2023-06-04T13:25:42;2.13;;;0.40;;
55210;SDS011;41082;52.822;6.666;2023-06-04T13:28:08;2.63;;;0.40;;
55210;SDS011;41082;52.822;6.666;2023-06-04T13:30:36;3.20;;;0.57;;
55210;SDS011;41082;52.822;6.666;2023-06-04T13:33:03;1.63;;;0.40;;
55210;SDS011;41082;52.822;6.666;2023-06-04T13:35:30;2.95;;;0.40;;
55210;SDS011;41082;52.822;6.666;2023-06-04T13:37:56;4.22;;;0.90;;
55210;SDS011;41082;52.822;6.666;2023-06-04T13:40:22;2.35;;;0.43;;
55210;SDS011;41082;52.822;6.666;2023-06-04T13:42:47;2.05;;;0.85;;
55210;SDS011;41082;52.822;6.666;2023-06-04T13:45:13;3.33;;;0.40;;
55210;SDS011;41082;52.822;6.666;2023-06-04T13:47:39;3.75;;;0.60;;
55210;SDS011;41082;52.822;6.666;2023-06-04T13:50:05;2.10;;;0.57;;
55210;SDS011;41082;52.822;6.666;2023-06-04T13:52:31;2.65;;;0.60;;
55210;SDS011;41082;52.822;6.666;2023-06-04T13:54:56;2.88;;;0.43;;
55210;SDS011;41082;52.822;6.666;2023-06-04T13:57:24;3.17;;;0.40;;
55210;SDS011;41082;52.822;6.666;2023-06-04T13:59:50;3.90;;;0.65;;
55210;SDS011;41082;52.822;6.666;2023-06-04T14:02:16;2.38;;;0.50;;
55210;SDS011;41082;52.822;6.666;2023-06-04T14:04:42;3.85;;;0.60;;
55210;SDS011;41082;52.822;6.666;2023-06-04T14:07:08;1.92;;;0.70;;
55210;SDS011;41082;52.822;6.666;2023-06-04T14:09:33;3.20;;;0.50;;
55210;SDS011;41082;52.822;6.666;2023-06-04T14:12:00;1.58;;;0.68;;
55210;SDS011;41082;52.822;6.666;2023-06-04T14:14:27;2.72;;;0.50;;
55210;SDS011;41082;52.822;6.666;2023-06-04T14:16:56;3.40;;;0.50;;
55210;SDS011;41082;52.822;6.666;2023-06-04T14:19:22;5.25;;;1.02;;
55210;SDS011;41082;52.822;6.666;2023-06-04T14:21:48;1.48;;;0.50;;
55210;SDS011;41082;52.822;6.666;2023-06-04T14:24:14;3.13;;;0.45;;
55210;SDS011;41082;52.822;6.666;2023-06-04T14:26:39;3.22;;;0.50;;
55210;SDS011;41082;52.822;6.666;2023-06-04T14:29:05;6.93;;;0.60;;
55210;SDS011;41082;52.822;6.666;2023-06-04T14:31:30;1.75;;;0.60;;
55210;SDS011;41082;52.822;6.666;2023-06-04T14:33:56;3.80;;;0.75;;
55210;SDS011;41082;52.822;6.666;2023-06-04T14:36:21;2.58;;;0.40;;
55210;SDS011;41082;52.822;6.666;2023-06-04T14:38:47;2.30;;;0.50;;
55210;SDS011;41082;52.822;6.666;2023-06-04T14:41:13;2.63;;;0.50;;
55210;SDS011;41082;52.822;6.666;2023-06-04T14:43:39;5.78;;;0.70;;
55210;SDS011;41082;52.822;6.666;2023-06-04T14:46:05;3.53;;;0.80;;
55210;SDS011;41082;52.822;6.666;2023-06-04T14:48:30;3.30;;;0.65;;
55210;SDS011;41082;52.822;6.666;2023-06-04T14:50:56;3.88;;;0.65;;
55210;SDS011;41082;52.822;6.666;2023-06-04T14:53:22;3.67;;;0.60;;
55210;SDS011;41082;52.822;6.666;2023-06-04T14:55:48;3.60;;;0.70;;
55210;SDS011;41082;52.822;6.666;2023-06-04T14:58:14;3.80;;;0.90;;
55210;SDS011;41082;52.822;6.666;2023-06-04T15:00:43;1.90;;;0.50;;